createdAt,value
2022-08-19T00:00:21.542Z,18.60
2022-08-19T00:05:27.116Z,18.50
2022-08-19T00:10:30.981Z,18.60
2022-08-19T00:15:34.311Z,18.50
2022-08-19T00:20:39.488Z,18.50
2022-08-19T00:25:42.815Z,18.50
2022-08-19T00:30:52.930Z,18.40
2022-08-19T00:35:57.864Z,18.40
2022-08-19T00:41:01.049Z,18.40
2022-08-19T00:46:05.776Z,18.40
2022-08-19T00:51:11.190Z,18.30
2022-08-19T00:56:17.093Z,18.30
2022-08-19T01:01:21.034Z,18.30
2022-08-19T01:06:29.796Z,18.30
2022-08-19T01:11:35.257Z,18.30
2022-08-19T01:16:39.945Z,18.20
2022-08-19T01:21:54.646Z,18.10
2022-08-19T01:26:59.511Z,18.00
2022-08-19T01:32:03.739Z,18.00
2022-08-19T01:37:12.012Z,17.90
2022-08-19T01:42:16.682Z,17.90
2022-08-19T01:47:20.320Z,17.90
2022-08-19T01:52:23.699Z,17.80
2022-08-19T01:57:28.354Z,17.80
2022-08-19T02:02:31.653Z,17.70
2022-08-19T02:07:35.172Z,17.70
2022-08-19T02:12:42.723Z,17.60
2022-08-19T02:17:45.993Z,17.60
2022-08-19T02:22:49.226Z,17.60
2022-08-19T02:27:54.793Z,17.60
2022-08-19T02:32:59.024Z,17.50
2022-08-19T02:38:20.045Z,17.50
2022-08-19T02:43:26.781Z,17.50
2022-08-19T02:48:34.431Z,17.50
2022-08-19T02:53:38.334Z,17.40
2022-08-19T02:58:44.118Z,17.40
2022-08-19T03:03:47.566Z,17.40
2022-08-19T03:08:51.424Z,17.40
2022-08-19T03:13:56.344Z,17.30
2022-08-19T03:19:03.533Z,17.30
2022-08-19T03:24:09.540Z,17.30
2022-08-19T03:29:14.768Z,17.30
2022-08-19T03:34:32.303Z,17.30
2022-08-19T03:39:36.175Z,17.30
2022-08-19T03:44:41.006Z,17.30
2022-08-19T03:49:44.434Z,17.20
2022-08-19T03:54:47.646Z,17.20
2022-08-19T03:59:52.265Z,17.20
2022-08-19T04:04:56.567Z,17.20
2022-08-19T04:10:00.342Z,17.20
2022-08-19T04:15:06.517Z,17.10
2022-08-19T04:20:11.152Z,17.10
2022-08-19T04:25:14.625Z,17.10
2022-08-19T04:30:20.365Z,17.10
2022-08-19T04:35:25.015Z,17.10
2022-08-19T04:40:45.528Z,17.10
2022-08-19T04:45:56.864Z,17.20
2022-08-19T04:51:09.128Z,17.20
2022-08-19T04:56:14.689Z,17.20
2022-08-19T05:01:21.967Z,17.30
2022-08-19T05:06:25.928Z,17.40
2022-08-19T05:11:31.580Z,17.40
2022-08-19T05:16:36.709Z,17.40
2022-08-19T05:21:58.391Z,17.50
2022-08-19T05:27:03.559Z,17.60
2022-08-19T05:32:09.856Z,17.50
2022-08-19T05:37:13.138Z,17.50
2022-08-19T05:42:16.518Z,17.50
2022-08-19T05:47:21.661Z,17.50
2022-08-19T05:52:25.919Z,17.50
2022-08-19T05:57:30.154Z,17.60
2022-08-19T06:02:36.198Z,17.60
2022-08-19T06:07:41.034Z,17.70
2022-08-19T06:12:44.278Z,17.80
2022-08-19T06:17:48.889Z,17.90
2022-08-19T06:22:52.589Z,17.80
2022-08-19T06:28:14.073Z,17.90
2022-08-19T06:33:19.842Z,18.00
2022-08-19T06:38:24.581Z,18.10
2022-08-19T06:43:28.196Z,18.30
2022-08-19T06:48:37.729Z,18.40
2022-08-19T06:58:52.885Z,18.50
2022-08-19T07:03:57.600Z,18.60
2022-08-19T07:09:01.922Z,18.70
2022-08-19T07:14:07.633Z,18.70
2022-08-19T07:19:25.496Z,18.60
2022-08-19T07:24:31.210Z,18.60
2022-08-19T07:29:38.733Z,18.60
2022-08-19T07:34:43.329Z,18.40
2022-08-19T07:39:46.603Z,18.30
2022-08-19T07:44:50.543Z,18.20
2022-08-19T07:49:55.511Z,18.10
2022-08-19T07:55:01.036Z,18.10
2022-08-19T08:00:07.101Z,18.20
2022-08-19T08:05:29.438Z,18.20
2022-08-19T08:10:33.499Z,18.20
2022-08-19T08:15:42.750Z,18.20
2022-08-19T08:20:48.048Z,18.30
2022-08-19T08:25:51.555Z,18.40
2022-08-19T08:30:55.432Z,18.50
2022-08-19T08:36:00.043Z,18.50
2022-08-19T08:41:20.482Z,18.60
2022-08-19T08:46:32.865Z,18.60
2022-08-19T08:56:48.136Z,18.40
2022-08-19T09:01:55.001Z,18.40
2022-08-19T09:07:26.208Z,18.30
2022-08-19T09:12:44.761Z,18.30
2022-08-19T09:17:50.573Z,18.20
2022-08-19T09:22:55.154Z,18.10
2022-08-19T09:28:02.264Z,18.10
2022-08-19T09:33:07.314Z,18.20
2022-08-19T09:38:11.956Z,18.30
2022-08-19T09:43:15.164Z,18.30
2022-08-19T09:48:36.788Z,18.30
2022-08-19T09:53:41.536Z,18.30
2022-08-19T09:58:44.677Z,18.30
2022-08-19T10:03:51.824Z,18.50
2022-08-19T10:08:56.375Z,18.60
2022-08-19T10:14:00.775Z,18.60
2022-08-19T10:19:05.955Z,18.70
2022-08-19T10:24:10.600Z,18.60
2022-08-19T10:29:14.882Z,18.70
2022-08-19T10:34:37.218Z,18.80
2022-08-19T10:39:53.335Z,18.90
2022-08-19T10:44:56.560Z,18.90
2022-08-19T10:50:19.099Z,18.80
2022-08-19T10:55:43.283Z,19.00
2022-08-19T11:00:54.241Z,19.10
2022-08-19T11:06:01.748Z,19.30
2022-08-19T11:11:07.777Z,19.40
2022-08-19T11:16:15.107Z,19.40
2022-08-19T11:21:21.826Z,19.30
2022-08-19T11:26:26.964Z,19.40
2022-08-19T11:31:32.761Z,19.40
2022-08-19T11:36:36.934Z,19.30
2022-08-19T11:41:42.627Z,19.10
2022-08-19T11:46:47.455Z,19.10
2022-08-19T11:51:51.375Z,19.00
2022-08-19T11:56:57.195Z,19.00
2022-08-19T12:02:00.561Z,19.00
2022-08-19T12:07:04.374Z,19.00
2022-08-19T12:12:09.898Z,19.00
2022-08-19T12:17:14.429Z,19.00
2022-08-19T12:22:17.796Z,18.90
2022-08-19T12:27:32.293Z,19.00
2022-08-19T12:32:43.805Z,19.00
2022-08-19T12:37:56.738Z,18.80
2022-08-19T12:43:02.303Z,18.80
2022-08-19T12:48:33.843Z,18.70
2022-08-19T12:53:30.000Z,18.70
2022-08-19T12:58:35.621Z,18.80
2022-08-19T13:03:40.769Z,18.90
2022-08-19T13:08:46.628Z,19.20
2022-08-19T13:13:56.257Z,19.20
2022-08-19T13:19:00.171Z,19.20
2022-08-19T13:24:03.473Z,19.00
2022-08-19T13:30:38.220Z,18.90
2022-08-19T13:47:08.316Z,18.70
2022-08-19T13:52:12.935Z,18.60
2022-08-19T14:03:33.158Z,18.60
2022-08-19T14:47:57.036Z,18.70
2022-08-19T14:53:04.378Z,18.60
2022-08-19T14:58:29.451Z,18.70
2022-08-19T15:03:35.398Z,18.80
2022-08-19T15:08:40.528Z,18.90
2022-08-19T15:13:44.939Z,19.10
2022-08-19T15:18:53.382Z,19.40
2022-08-19T15:23:59.812Z,19.50
2022-08-19T15:29:04.375Z,19.70
2022-08-19T15:34:09.424Z,19.60
2022-08-19T15:39:12.733Z,19.90
2022-08-19T15:44:18.713Z,20.10
2022-08-19T15:49:23.561Z,20.20
2022-08-19T15:54:27.568Z,20.10
2022-08-19T15:59:48.527Z,20.00
2022-08-19T16:05:12.945Z,19.90
2022-08-19T16:10:27.101Z,20.00
2022-08-19T16:15:36.278Z,20.30
2022-08-19T16:20:41.082Z,20.60
2022-08-19T16:25:44.413Z,20.80
2022-08-19T16:30:51.020Z,20.90
2022-08-19T16:36:00.164Z,20.80
2022-08-19T16:41:03.866Z,20.70
2022-08-19T16:46:07.432Z,20.70
2022-08-19T16:51:13.102Z,20.70
2022-08-19T16:56:16.520Z,20.50
2022-08-19T17:01:20.116Z,20.40
2022-08-19T17:06:29.545Z,20.30
2022-08-19T17:11:33.912Z,20.30
2022-08-19T17:16:38.213Z,20.20
2022-08-19T17:21:42.862Z,20.10
2022-08-19T17:26:47.141Z,19.90
2022-08-19T17:31:50.960Z,19.80
2022-08-19T17:36:56.777Z,19.70
2022-08-19T17:42:02.984Z,19.60
2022-08-19T17:47:06.843Z,19.50
2022-08-19T17:52:12.018Z,19.50
2022-08-19T17:57:15.378Z,19.40
2022-08-19T18:02:19.864Z,19.50
2022-08-19T18:07:26.791Z,19.50
2022-08-19T18:12:35.883Z,19.60
2022-08-19T18:17:39.472Z,19.50
2022-08-19T18:22:46.851Z,19.50
2022-08-19T18:27:50.452Z,19.40
2022-08-19T18:32:55.024Z,19.20
2022-08-19T18:38:22.430Z,19.20
2022-08-19T18:43:42.049Z,19.00
2022-08-19T18:49:02.944Z,18.90
2022-08-19T18:54:08.238Z,18.80
2022-08-19T18:59:11.947Z,18.90
2022-08-19T19:04:15.749Z,18.90
2022-08-19T19:09:23.185Z,18.90
2022-08-19T19:14:48.209Z,18.60
2022-08-19T19:19:51.767Z,18.50
2022-08-19T19:24:59.614Z,18.40
2022-08-19T19:30:03.609Z,18.40
2022-08-19T19:35:10.801Z,18.50
2022-08-19T19:40:16.538Z,18.50
2022-08-19T19:45:22.599Z,18.60
2022-08-19T19:50:26.024Z,18.60
2022-08-19T19:55:30.921Z,18.70
2022-08-19T20:00:34.578Z,18.70
2022-08-19T20:05:40.820Z,18.60
2022-08-19T20:10:46.985Z,18.50
2022-08-19T20:15:53.118Z,18.50
2022-08-19T20:20:56.579Z,18.40
2022-08-19T20:26:01.372Z,18.50
2022-08-19T20:31:04.894Z,18.40
2022-08-19T20:36:08.790Z,18.40
2022-08-19T20:41:13.728Z,18.30
2022-08-19T20:46:17.173Z,18.30
2022-08-19T20:51:21.071Z,18.30
2022-08-19T20:56:25.781Z,18.40
2022-08-19T21:01:29.081Z,18.30
2022-08-19T21:06:32.344Z,18.30
2022-08-19T21:11:37.984Z,18.30
2022-08-19T21:16:41.283Z,18.30
2022-08-19T21:21:44.550Z,18.30
2022-08-19T21:26:51.364Z,18.30
2022-08-19T21:31:54.886Z,18.30
2022-08-19T21:36:58.277Z,18.40
2022-08-19T21:42:03.034Z,18.50
2022-08-19T21:47:06.618Z,18.60
2022-08-19T21:52:14.049Z,18.60
2022-08-19T21:57:19.121Z,18.60
2022-08-19T22:02:22.685Z,18.60
2022-08-19T22:07:25.960Z,18.60
2022-08-19T22:12:32.769Z,18.60
2022-08-19T22:17:36.324Z,18.60
2022-08-19T22:22:45.817Z,18.60
2022-08-19T22:27:51.380Z,18.60
2022-08-19T22:33:02.822Z,18.60
2022-08-19T22:38:08.305Z,18.70
2022-08-19T22:43:18.636Z,18.60
2022-08-19T22:48:24.087Z,18.50
2022-08-19T22:53:28.491Z,18.50
2022-08-19T22:58:33.105Z,18.40
2022-08-19T23:03:36.438Z,18.40
2022-08-19T23:08:39.927Z,18.40
2022-08-19T23:13:45.392Z,18.40
2022-08-19T23:18:48.697Z,18.40
2022-08-19T23:23:57.655Z,18.40
2022-08-19T23:29:19.952Z,18.40
2022-08-19T23:34:23.164Z,18.30
2022-08-19T23:39:29.913Z,18.30
2022-08-19T23:44:34.972Z,18.40
2022-08-19T23:49:55.044Z,18.30
2022-08-19T23:55:01.783Z,18.30
